Time;durP1;ratioP1;P1;durP2;ratioP2;P2;SDS_P1;SDS_P2;PMS_P1;PMS_P2;Temp;Humidity;BMP_temperature;BMP_pressure;BME280_temperature;BME280_humidity;BME280_pressure;Samples;Min_cycle;Max_cycle;Signal;HPM_P1;HPM_P2
2022/04/04 00:02:27;;;;;;;4.57;3.92;;;3.30;44.00;;;;;;5005675;28;20221;-81
2022/04/04 00:04:54;;;;;;;4.80;4.35;;;3.10;52.50;;;;;;5005185;28;20205;-81
2022/04/04 00:07:20;;;;;;;8.02;4.72;;;3.00;50.00;;;;;;5003545;28;20676;-81
2022/04/04 00:09:47;;;;;;;8.45;5.18;;;3.10;54.10;;;;;;5004307;28;20246;-80
2022/04/04 00:12:15;;;;;;;5.00;4.53;;;3.10;40.40;;;;;;5004222;28;20232;-81
2022/04/04 00:14:42;;;;;;;7.85;4.57;;;3.10;51.70;;;;;;5016059;28;20604;-80
2022/04/04 00:17:08;;;;;;;8.48;4.45;;;3.10;32.20;;;;;;5018152;28;20201;-81
2022/04/04 00:19:35;;;;;;;4.85;4.35;;;3.10;32.80;;;;;;5018989;28;20217;-81
2022/04/04 00:22:02;;;;;;;5.28;4.28;;;3.10;38.00;;;;;;5018304;28;20205;-80
2022/04/04 00:24:29;;;;;;;5.50;4.90;;;3.10;28.60;;;;;;5017819;28;20196;-80
2022/04/04 00:26:56;;;;;;;4.88;4.45;;;2.90;66.80;;;;;;5010612;28;20259;-81
2022/04/04 00:29:24;;;;;;;5.97;5.00;;;3.10;23.30;;;;;;5008516;28;20197;-81
2022/04/04 00:31:50;;;;;;;6.65;4.22;;;3.10;20.60;;;;;;5006440;28;20253;-82
2022/04/04 00:34:17;;;;;;;5.32;4.82;;;3.10;11.70;;;;;;5005465;28;20213;-82
2022/04/04 00:36:45;;;;;;;7.82;4.95;;;3.20;13.60;;;;;;5004652;28;20236;-81
2022/04/04 00:39:15;;;;;;;4.18;3.88;;;3.10;10.30;;;;;;5004810;28;20312;-81
2022/04/04 00:41:42;;;;;;;4.90;4.50;;;3.10;23.50;;;;;;5008612;28;20228;-81
2022/04/04 00:44:09;;;;;;;4.60;4.20;;;3.10;1.50;;;;;;5004708;28;20205;-81
2022/04/04 00:46:41;;;;;;;5.55;4.85;;;3.10;10.60;;;;;;5002263;28;20297;-82
2022/04/04 00:49:08;;;;;;;4.90;3.83;;;3.10;1.00;;;;;;5003621;28;20193;-82
2022/04/04 00:51:35;;;;;;;4.50;3.85;;;3.30;1.00;;;;;;5003932;28;20319;-81
2022/04/04 00:54:03;;;;;;;5.50;4.70;;;3.10;1.00;;;;;;5004017;28;20205;-82
2022/04/04 00:56:32;;;;;;;9.73;7.18;;;3.10;1.00;;;;;;5013125;28;20204;-80
2022/04/04 00:58:59;;;;;;;5.30;4.80;;;3.40;1.00;;;;;;5008252;28;20221;-81
2022/04/04 01:01:28;;;;;;;4.88;4.50;;;3.10;1.00;;;;;;5003533;28;20225;-81
2022/04/04 01:03:56;;;;;;;5.25;4.85;;;3.30;1.00;;;;;;5000954;28;20209;-80
2022/04/04 01:06:24;;;;;;;7.13;4.78;;;3.20;1.00;;;;;;5001469;28;20204;-81
2022/04/04 01:08:51;;;;;;;6.43;5.13;;;3.30;1.00;;;;;;5013189;28;20211;-80
2022/04/04 01:11:18;;;;;;;9.40;5.60;;;3.00;1.00;;;;;;5015295;28;20268;-80
2022/04/04 01:13:48;;;;;;;5.45;4.95;;;3.10;1.00;;;;;;5013386;28;20208;-80
2022/04/04 01:16:15;;;;;;;5.60;4.60;;;3.20;1.00;;;;;;5006627;28;20229;-81
2022/04/04 01:18:42;;;;;;;4.80;4.40;;;3.10;1.00;;;;;;5005632;28;20228;-81
2022/04/04 01:21:11;;;;;;;8.80;4.78;;;3.00;1.00;;;;;;5003034;28;20205;-80
2022/04/04 01:23:41;;;;;;;5.70;5.22;;;3.20;1.00;;;;;;5002319;28;20205;-81
2022/04/04 01:26:10;;;;;;;5.78;5.13;;;2.90;1.00;;;;;;5003054;28;20213;-81
2022/04/04 01:28:38;;;;;;;5.82;4.68;;;3.20;1.00;;;;;;5001878;28;20641;-81
2022/04/04 01:31:05;;;;;;;4.57;4.18;;;2.90;1.00;;;;;;5004887;28;20213;-82
2022/04/04 01:33:32;;;;;;;5.57;5.07;;;3.00;1.00;;;;;;5002351;28;20268;-80
2022/04/04 01:35:59;;;;;;;6.93;5.05;;;3.00;1.00;;;;;;5003895;28;20196;-82
2022/04/04 01:38:26;;;;;;;6.65;5.28;;;3.30;1.00;;;;;;5002577;28;20201;-81
2022/04/04 01:40:54;;;;;;;6.72;5.72;;;2.90;1.00;;;;;;5003431;28;20193;-80
2022/04/04 01:43:23;;;;;;;6.13;5.63;;;2.90;1.00;;;;;;5003991;28;20225;-80
2022/04/04 01:48:38;;;;;;;6.03;5.05;;;2.90;1.00;;;;;;5016265;28;20209;-79
2022/04/04 01:51:05;;;;;;;6.90;6.40;;;2.90;21.40;;;;;;5015192;28;20305;-79
2022/04/04 01:53:33;;;;;;;6.22;5.63;;;2.80;17.70;;;;;;5019880;28;20208;-80
2022/04/04 01:56:03;;;;;;;5.63;5.13;;;2.80;1.00;;;;;;5021108;28;20209;-80
2022/04/04 01:58:34;;;;;;;8.30;5.90;;;2.80;9.70;;;;;;5020037;28;20203;-80
2022/04/04 02:01:06;;;;;;;6.43;5.93;;;1.50;23.60;;;;;;5020729;28;20185;-80
2022/04/04 02:03:38;;;;;;;8.73;6.20;;;2.70;1.00;;;;;;5021586;28;20193;-80
2022/04/04 02:06:07;;;;;;;6.72;5.68;;;;;;;;;;5016352;28;20204;-81
2022/04/04 02:08:34;;;;;;;6.50;5.85;;;;;;;;;;5002286;28;20193;-81
2022/04/04 02:11:02;;;;;;;5.63;5.20;;;2.90;3.80;;;;;;5001209;28;20259;-81
2022/04/04 02:13:30;;;;;;;5.35;4.75;;;2.70;1.00;;;;;;5000268;28;20212;-81
2022/04/04 02:16:00;;;;;;;7.90;5.72;;;2.80;1.00;;;;;;4998640;28;20214;-81
2022/04/04 02:18:28;;;;;;;8.93;5.93;;;4.20;1.00;;;;;;4999578;28;20220;-81
2022/04/04 02:20:55;;;;;;;5.88;5.20;;;;;;;;;;4999437;28;20267;-81
2022/04/04 02:23:22;;;;;;;7.43;5.43;;;2.70;1.00;;;;;;4998793;28;20594;-82
2022/04/04 02:25:50;;;;;;;6.60;6.00;;;2.70;1.00;;;;;;4999006;28;20580;-81
2022/04/04 02:28:18;;;;;;;5.55;5.13;;;2.80;1.00;;;;;;4999314;28;20279;-81
2022/04/04 02:30:49;;;;;;;8.10;5.95;;;2.90;1.00;;;;;;4998949;28;20197;-81
2022/04/04 02:33:16;;;;;;;7.60;6.00;;;2.80;1.00;;;;;;4999193;28;20275;-81
2022/04/04 02:35:43;;;;;;;10.68;5.30;;;2.80;1.00;;;;;;4999290;28;20580;-82
2022/04/04 02:38:11;;;;;;;6.20;5.57;;;2.80;1.00;;;;;;4999451;28;20212;-80
2022/04/04 02:40:38;;;;;;;7.78;5.82;;;2.70;1.00;;;;;;4998510;28;20232;-80
2022/04/04 02:43:06;;;;;;;6.88;6.25;;;2.70;1.00;;;;;;4998608;28;20231;-81
2022/04/04 02:45:34;;;;;;;6.43;5.80;;;2.70;29.60;;;;;;5006626;28;20205;-80
2022/04/04 02:48:02;;;;;;;6.78;5.65;;;2.70;40.00;;;;;;5018482;28;20205;-81
2022/04/04 02:50:29;;;;;;;7.32;5.60;;;2.70;16.30;;;;;;5017709;28;20189;-79
2022/04/04 02:52:56;;;;;;;8.10;5.85;;;2.70;18.70;;;;;;5012751;28;20225;-80
2022/04/04 02:58:06;;;;;;;9.13;7.60;;;2.70;25.10;;;;;;4973145;28;20647;-80
2022/04/04 03:00:33;;;;;;;6.93;6.10;;;2.70;25.50;;;;;;4998797;28;20216;-81
2022/04/04 03:02:59;;;;;;;6.57;5.93;;;2.60;52.90;;;;;;4999226;28;20273;-81
2022/04/04 03:05:28;;;;;;;7.70;5.25;;;2.60;30.30;;;;;;4998976;28;20232;-81
2022/04/04 03:07:54;;;;;;;9.15;6.45;;;2.60;44.10;;;;;;4998425;28;20216;-81
2022/04/04 03:10:24;;;;;;;6.88;6.18;;;2.70;81.20;;;;;;4999658;28;20285;-83
2022/04/04 03:12:51;;;;;;;5.82;5.32;;;2.60;37.70;;;;;;5016089;28;20292;-81
2022/04/04 03:15:20;;;;;;;8.00;6.15;;;2.60;31.80;;;;;;5018785;28;20212;-80
2022/04/04 03:17:49;;;;;;;7.30;5.97;;;2.60;28.10;;;;;;5018048;28;20215;-80
2022/04/04 03:20:18;;;;;;;9.43;5.88;;;2.50;40.50;;;;;;5019542;28;20209;-81
2022/04/04 03:22:49;;;;;;;6.35;5.78;;;2.50;34.20;;;;;;5019748;28;20228;-80
2022/04/04 03:25:17;;;;;;;8.02;5.65;;;2.40;52.00;;;;;;5019168;28;20189;-80
2022/04/04 03:27:46;;;;;;;7.78;6.65;;;2.30;73.90;;;;;;5010304;28;20211;-81
2022/04/04 03:30:15;;;;;;;8.52;5.65;;;2.30;93.90;;;;;;5001898;28;20231;-80
2022/04/04 03:32:42;;;;;;;6.43;5.85;;;2.20;99.90;;;;;;5011076;28;20721;-80
2022/04/04 03:35:09;;;;;;;8.20;6.70;;;2.20;99.90;;;;;;5010326;28;20544;-80
2022/04/04 03:37:37;;;;;;;8.77;6.65;;;2.30;99.90;;;;;;5010592;28;20216;-80
2022/04/04 03:40:12;;;;;;;13.05;7.10;;;2.20;99.90;;;;;;4999815;28;20252;-81
2022/04/04 03:42:38;;;;;;;9.30;6.63;;;2.40;99.90;;;;;;4998325;28;20286;-81
2022/04/04 03:45:06;;;;;;;9.65;6.13;;;2.30;99.90;;;;;;4997932;28;20746;-81
2022/04/04 03:47:36;;;;;;;7.07;6.38;;;2.30;99.90;;;;;;5005014;28;20201;-81
2022/04/04 03:50:02;;;;;;;7.35;6.65;;;2.40;97.30;;;;;;5009565;28;20264;-81
2022/04/04 03:52:29;;;;;;;6.68;6.05;;;2.30;99.90;;;;;;5014771;28;20209;-81
2022/04/04 03:54:55;;;;;;;8.07;7.05;;;2.30;99.90;;;;;;5001790;28;20244;-81
2022/04/04 03:57:23;;;;;;;7.55;6.80;;;2.40;98.90;;;;;;5006244;28;20232;-81
2022/04/04 03:59:51;;;;;;;8.48;7.40;;;2.30;99.90;;;;;;5003966;28;20225;-81
2022/04/04 04:02:18;;;;;;;12.15;7.40;;;2.30;99.90;;;;;;4997575;28;20455;-82
2022/04/04 04:04:44;;;;;;;7.55;6.95;;;2.30;95.20;;;;;;4997619;28;20698;-82
2022/04/04 04:07:15;;;;;;;8.07;7.20;;;2.50;99.90;;;;;;4998109;28;20228;-82
2022/04/04 04:09:43;;;;;;;7.78;6.20;;;2.10;99.90;;;;;;4997931;28;20210;-82
2022/04/04 04:12:11;;;;;;;9.60;6.35;;;2.20;99.90;;;;;;4997750;28;20229;-81
2022/04/04 04:14:39;;;;;;;7.10;6.40;;;2.30;99.90;;;;;;4998238;28;20704;-82
2022/04/04 04:17:08;;;;;;;7.00;6.30;;;2.30;99.90;;;;;;4998948;28;20215;-81
2022/04/04 04:22:21;;;;;;;8.50;7.60;;;2.20;99.90;;;;;;4997273;28;20288;-81
2022/04/04 04:24:48;;;;;;;8.48;6.60;;;2.40;99.90;;;;;;4998723;28;20205;-81
2022/04/04 04:27:15;;;;;;;7.85;6.60;;;2.20;99.90;;;;;;4999784;28;20227;-81
2022/04/04 04:29:43;;;;;;;7.13;5.90;;;2.10;99.90;;;;;;5000098;28;20640;-81
2022/04/04 04:32:12;;;;;;;9.20;7.35;;;2.00;99.90;;;;;;5000347;28;20229;-82
2022/04/04 04:34:39;;;;;;;8.32;7.30;;;2.20;99.90;;;;;;5002927;28;20201;-81
2022/04/04 04:37:07;;;;;;;8.38;6.63;;;2.00;99.90;;;;;;5004812;28;20247;-81
2022/04/04 04:39:35;;;;;;;9.63;7.10;;;1.90;99.90;;;;;;5001437;28;20248;-81
2022/04/04 04:42:02;;;;;;;7.65;6.95;;;1.90;99.90;;;;;;4997361;28;20247;-81
2022/04/04 04:44:29;;;;;;;7.70;6.90;;;1.80;99.90;;;;;;4998299;28;20209;-81
2022/04/04 04:46:57;;;;;;;8.60;7.55;;;1.90;99.90;;;;;;4998202;28;20227;-81
2022/04/04 04:49:26;;;;;;;9.05;7.47;;;1.90;99.90;;;;;;4998631;28;20205;-81
2022/04/04 04:51:53;;;;;;;8.55;7.75;;;1.70;99.90;;;;;;4997975;28;20225;-81
2022/04/04 04:54:20;;;;;;;7.25;5.90;;;1.90;99.90;;;;;;4997493;28;20205;-81
2022/04/04 04:56:48;;;;;;;8.40;7.30;;;1.80;99.90;;;;;;4997451;28;20256;-82
2022/04/04 04:59:15;;;;;;;9.02;7.57;;;1.80;99.90;;;;;;4997382;28;20259;-80
2022/04/04 05:01:42;;;;;;;8.98;7.05;;;1.60;99.90;;;;;;4997446;28;20707;-81
2022/04/04 05:04:12;;;;;;;8.98;6.53;;;1.70;99.90;;;;;;4997568;28;20209;-81
2022/04/04 05:06:40;;;;;;;6.75;6.05;;;1.80;99.90;;;;;;4998697;28;20197;-80
2022/04/04 05:09:06;;;;;;;7.75;7.05;;;2.00;99.90;;;;;;5004234;28;20201;-79
2022/04/04 05:11:33;;;;;;;7.90;6.30;;;2.00;99.90;;;;;;5002582;28;20229;-82
2022/04/04 05:14:00;;;;;;;10.35;6.40;;;1.80;99.90;;;;;;5003526;28;20221;-81
2022/04/04 05:16:28;;;;;;;7.50;6.80;;;1.80;99.90;;;;;;5002463;28;20230;-82
2022/04/04 05:18:56;;;;;;;6.57;6.03;;;2.00;98.30;;;;;;5003357;28;20229;-81
2022/04/04 05:21:24;;;;;;;8.05;6.85;;;1.90;78.30;;;;;;5003498;28;20239;-81
2022/04/04 05:23:51;;;;;;;9.95;7.13;;;1.90;49.20;;;;;;5002281;28;20213;-82
2022/04/04 05:26:18;;;;;;;6.55;5.90;;;2.10;32.50;;;;;;5009720;23;20229;-77
2022/04/04 05:28:44;;;;;;;6.70;6.10;;;2.10;1.30;;;;;;4994634;28;20201;-78
2022/04/04 05:31:11;;;;;;;7.72;6.95;;;2.20;1.00;;;;;;4998556;28;20229;-77
2022/04/04 05:33:37;;;;;;;12.80;7.13;;;2.10;1.00;;;;;;5004486;28;20209;-77
2022/04/04 05:36:05;;;;;;;9.23;7.55;;;2.50;1.00;;;;;;5000722;28;20283;-78
2022/04/04 05:38:33;;;;;;;6.78;6.15;;;2.20;1.00;;;;;;4995259;28;20228;-78
2022/04/04 05:41:00;;;;;;;7.93;6.80;;;2.30;1.00;;;;;;4996500;28;20740;-78
2022/04/04 05:43:27;;;;;;;10.30;7.15;;;2.40;1.00;;;;;;4995682;28;20213;-78
2022/04/04 05:45:54;;;;;;;9.25;7.22;;;2.40;1.00;;;;;;4997500;28;20225;-78
2022/04/04 05:48:21;;;;;;;10.18;7.65;;;2.50;1.00;;;;;;5002474;28;20201;-78
2022/04/04 05:50:47;;;;;;;8.50;7.68;;;2.60;1.00;;;;;;4999964;28;20295;-77
2022/04/04 05:53:14;;;;;;;14.20;7.80;;;2.60;1.00;;;;;;5002213;28;20308;-78
2022/04/04 05:55:42;;;;;;;8.55;7.40;;;2.70;1.00;;;;;;5000018;28;20615;-78
2022/04/04 05:58:09;;;;;;;10.68;7.60;;;2.70;1.00;;;;;;4999090;28;20205;-77
2022/04/04 06:00:35;;;;;;;8.13;7.30;;;2.90;1.00;;;;;;4999236;28;20248;-79
2022/04/04 06:03:02;;;;;;;9.00;7.47;;;2.70;1.00;;;;;;4999780;28;20236;-77
2022/04/04 06:05:29;;;;;;;16.08;8.57;;;2.80;1.00;;;;;;4998791;28;20288;-78
2022/04/04 06:07:56;;;;;;;12.13;7.90;;;2.90;99.90;;;;;;4999261;28;20277;-78
2022/04/04 06:10:23;;;;;;;8.90;8.00;;;3.00;99.90;;;;;;5000137;28;20205;-78
2022/04/04 06:12:51;;;;;;;8.73;7.70;;;2.90;99.90;;;;;;5001949;28;20205;-79
2022/04/04 06:15:17;;;;;;;8.07;7.28;;;3.00;99.90;;;;;;5011946;28;20240;-79
2022/04/04 06:17:44;;;;;;;12.52;8.52;;;3.00;99.90;;;;;;5010439;28;20197;-79
2022/04/04 06:20:12;;;;;;;9.10;7.82;;;3.10;99.90;;;;;;5013290;28;20268;-78
2022/04/04 06:22:40;;;;;;;10.43;8.93;;;3.30;1.00;;;;;;5006397;28;20205;-79
2022/04/04 06:25:08;;;;;;;13.15;10.23;;;3.40;99.90;;;;;;5004245;28;20228;-79
2022/04/04 06:27:35;;;;;;;10.43;9.15;;;3.50;99.90;;;;;;5005958;28;20264;-79
2022/04/04 06:30:03;;;;;;;13.52;9.75;;;3.80;99.90;;;;;;5007997;28;20220;-79
2022/04/04 06:32:30;;;;;;;12.07;9.10;;;3.70;99.90;;;;;;5004840;28;20201;-79
2022/04/04 06:34:56;;;;;;;9.07;8.13;;;3.70;99.90;;;;;;5001510;28;20659;-79
2022/04/04 06:37:23;;;;;;;11.30;9.02;;;3.70;99.90;;;;;;5001810;28;20212;-78
2022/04/04 06:39:50;;;;;;;13.55;9.93;;;3.70;1.00;;;;;;5006180;28;20233;-77
2022/04/04 06:42:16;;;;;;;10.57;9.30;;;3.80;1.00;;;;;;5007502;28;20236;-78
2022/04/04 06:44:43;;;;;;;9.80;8.80;;;3.90;1.00;;;;;;5008552;28;20212;-77
2022/04/04 06:47:11;;;;;;;10.10;9.02;;;3.90;99.90;;;;;;5009908;28;20209;-78
2022/04/04 06:49:38;;;;;;;11.10;9.20;;;4.00;1.00;;;;;;5006392;28;20219;-78
2022/04/04 06:52:05;;;;;;;12.45;11.20;;;4.10;99.90;;;;;;5006367;28;20256;-78
2022/04/04 06:54:32;;;;;;;12.75;10.75;;;4.40;99.90;;;;;;5004731;28;20228;-79
2022/04/04 06:56:59;;;;;;;13.20;9.85;;;4.40;99.90;;;;;;5002878;28;20558;-79
2022/04/04 06:59:25;;;;;;;17.20;10.07;;;4.30;1.00;;;;;;5002548;28;20212;-78
2022/04/04 07:01:52;;;;;;;13.35;10.88;;;4.20;55.90;;;;;;4998125;28;20221;-77
2022/04/04 07:04:20;;;;;;;18.00;11.18;;;4.30;91.60;;;;;;4998606;28;20292;-77
2022/04/04 07:06:47;;;;;;;12.18;10.85;;;4.40;1.00;;;;;;4998823;28;20279;-78
2022/04/04 07:09:13;;;;;;;12.80;9.82;;;4.40;1.00;;;;;;5000660;28;20209;-78
2022/04/04 07:11:40;;;;;;;14.88;10.88;;;4.60;99.90;;;;;;4999159;28;20631;-78
2022/04/04 07:14:07;;;;;;;15.32;10.75;;;4.70;99.90;;;;;;4999480;28;20209;-79
2022/04/04 07:16:33;;;;;;;15.10;11.10;;;4.70;87.80;;;;;;4998430;28;20589;-78
2022/04/04 07:19:00;;;;;;;14.90;9.50;;;4.70;1.00;;;;;;4998900;28;20201;-79
2022/04/04 07:21:28;;;;;;;11.60;10.55;;;5.10;22.50;;;;;;4998433;28;20221;-78
2022/04/04 07:23:55;;;;;;;13.00;10.65;;;5.00;1.00;;;;;;5002466;28;20288;-78
2022/04/04 07:26:23;;;;;;;13.25;10.20;;;5.00;1.00;;;;;;4998411;28;20737;-78
2022/04/04 07:28:50;;;;;;;11.88;10.70;;;5.10;99.90;;;;;;5000712;28;20292;-79
2022/04/04 07:31:17;;;;;;;11.48;10.23;;;5.10;99.90;;;;;;4999951;28;20563;-78
2022/04/04 07:33:43;;;;;;;11.50;10.35;;;5.20;99.90;;;;;;4997959;28;20769;-79
2022/04/04 07:36:10;;;;;;;12.07;10.75;;;5.30;99.90;;;;;;4998351;28;20321;-79
2022/04/04 07:38:38;;;;;;;13.07;11.68;;;5.30;99.90;;;;;;4998995;28;20213;-79
2022/04/04 07:41:05;;;;;;;12.52;11.27;;;4.70;99.90;;;;;;5003206;28;20271;-78
2022/04/04 07:43:32;;;;;;;13.25;10.23;;;5.20;99.90;;;;;;5009838;28;20232;-78
2022/04/04 07:45:59;;;;;;;12.55;11.25;;;5.40;99.90;;;;;;5009587;28;20233;-77
2022/04/04 07:48:25;;;;;;;15.88;10.65;;;5.40;99.90;;;;;;5009479;28;20265;-78
2022/04/04 07:50:52;;;;;;;13.82;10.93;;;5.60;99.00;;;;;;5006986;28;20228;-78
2022/04/04 07:53:19;;;;;;;11.05;9.95;;;5.70;32.40;;;;;;5002292;28;20626;-79
2022/04/04 07:55:47;;;;;;;13.18;11.77;;;5.90;99.90;;;;;;4999393;28;20233;-79
2022/04/04 07:58:16;;;;;;;12.07;10.82;;;5.80;1.00;;;;;;4998678;28;20259;-79
2022/04/04 08:00:43;;;;;;;15.65;11.63;;;5.70;1.00;;;;;;4998231;28;20691;-79
2022/04/04 08:03:09;;;;;;;13.20;10.70;;;5.80;1.00;;;;;;4999559;28;20268;-79
2022/04/04 08:05:36;;;;;;;12.75;11.38;;;5.80;1.00;;;;;;4999527;28;20755;-79
2022/04/04 08:08:03;;;;;;;15.13;11.95;;;5.80;1.00;;;;;;4998592;28;20649;-78
2022/04/04 08:10:29;;;;;;;12.00;9.95;;;6.00;1.00;;;;;;4999048;28;20236;-79
2022/04/04 08:12:57;;;;;;;16.85;11.18;;;5.90;1.00;;;;;;4997815;28;20284;-78
2022/04/04 08:15:24;;;;;;;12.50;11.13;;;5.80;1.00;;;;;;4997173;28;20643;-79
2022/04/04 08:17:50;;;;;;;11.90;10.70;;;5.80;1.00;;;;;;4997435;28;20208;-78
2022/04/04 08:20:17;;;;;;;12.07;10.23;;;5.80;1.00;;;;;;4997921;28;20233;-78
2022/04/04 08:22:45;;;;;;;11.55;10.35;;;6.00;1.00;;;;;;4998472;28;20213;-79
2022/04/04 08:25:13;;;;;;;16.42;11.40;;;6.10;1.00;;;;;;4998121;28;20721;-79
2022/04/04 08:27:40;;;;;;;12.60;10.20;;;6.20;1.00;;;;;;4998983;28;20545;-79
2022/04/04 08:30:10;;;;;;;10.98;9.77;;;6.10;1.00;;;;;;4999326;28;20204;-79
2022/04/04 08:32:38;;;;;;;12.68;11.10;;;6.30;1.00;;;;;;4999201;28;20257;-79
2022/04/04 08:35:06;;;;;;;13.70;9.88;;;6.20;1.00;;;;;;4998924;28;20225;-79
2022/04/04 08:37:33;;;;;;;11.00;9.15;;;6.20;1.00;;;;;;4999868;28;20623;-79
2022/04/04 08:40:00;;;;;;;11.95;9.60;;;6.20;1.00;;;;;;4998434;28;20675;-79
2022/04/04 08:42:27;;;;;;;15.90;10.10;;;6.20;1.00;;;;;;4998717;28;20220;-79
2022/04/04 08:44:55;;;;;;;21.23;11.02;;;6.50;53.90;;;;;;4998951;28;20229;-79
2022/04/04 08:47:23;;;;;;;12.95;10.45;;;6.20;1.00;;;;;;4999155;28;20205;-78
2022/04/04 08:49:52;;;;;;;12.57;11.02;;;6.30;1.00;;;;;;4999570;28;20220;-78
2022/04/04 08:52:18;;;;;;;16.70;11.13;;;6.40;1.00;;;;;;4998644;28;20208;-78
2022/04/04 08:54:45;;;;;;;16.17;8.82;;;6.80;17.80;;;;;;4998768;28;20553;-78
2022/04/04 08:57:11;;;;;;;11.95;9.95;;;6.40;1.00;;;;;;4998044;28;20202;-79
2022/04/04 08:59:39;;;;;;;11.13;9.55;;;6.50;1.00;;;;;;4998747;28;20221;-79
2022/04/04 09:02:06;;;;;;;10.00;9.00;;;6.60;1.00;;;;;;4998695;28;20456;-79
2022/04/04 09:04:34;;;;;;;13.23;9.15;;;6.70;1.00;;;;;;4998023;28;20220;-79
2022/04/04 09:07:06;;;;;;;10.90;8.48;;;6.80;1.00;;;;;;5001965;28;20272;-86
2022/04/04 09:09:39;;;;;;;10.48;8.80;;;6.70;1.00;;;;;;5003124;28;20452;-79
2022/04/04 09:12:07;;;;;;;12.07;9.13;;;6.70;1.00;;;;;;4999620;28;20510;-80
2022/04/04 09:14:42;;;;;;;17.20;9.60;;;6.70;1.00;;;;;;4999051;28;20201;-80
2022/04/04 09:17:10;;;;;;;10.18;8.43;;;6.70;1.00;;;;;;4999818;28;20228;-80
2022/04/04 09:19:39;;;;;;;11.63;9.77;;;6.70;1.00;;;;;;4998732;28;20576;-79
2022/04/04 09:22:08;;;;;;;12.95;9.15;;;6.90;1.00;;;;;;4998018;28;20468;-80
2022/04/04 09:24:45;;;;;;;13.05;9.68;;;7.10;1.00;;;;;;5000540;28;20205;-79
2022/04/04 09:27:12;;;;;;;10.60;9.10;;;7.10;1.00;;;;;;5006893;28;20218;-79
2022/04/04 09:29:42;;;;;;;11.10;9.00;;;7.30;1.00;;;;;;5010075;28;20224;-79
2022/04/04 09:32:11;;;;;;;9.82;8.82;;;7.20;1.00;;;;;;5009236;28;20447;-79
2022/04/04 09:34:57;;;;;;;10.98;8.98;;;7.10;1.00;;;;;;5006847;28;20206;-79
2022/04/04 09:37:25;;;;;;;15.23;8.25;;;7.30;1.00;;;;;;5005798;28;20193;-80
2022/04/04 09:40:01;;;;;;;8.27;7.45;;;7.20;1.00;;;;;;5006273;28;20282;-80
2022/04/04 09:42:28;;;;;;;11.03;9.00;;;7.30;1.00;;;;;;5003449;28;20213;-79
2022/04/04 09:44:58;;;;;;;8.03;7.23;;;7.40;99.90;;;;;;5004273;28;20832;-79
2022/04/04 09:47:49;;;;;;;10.37;8.50;;;7.30;99.90;;;;;;5014670;28;20416;-78
2022/04/04 09:50:33;;;;;;;9.50;8.37;;;7.20;99.90;;;;;;5011277;28;20468;-80
2022/04/04 09:53:00;;;;;;;13.90;9.40;;;7.20;99.90;;;;;;5001344;28;20444;-80
2022/04/04 09:55:28;;;;;;;14.13;10.13;;;7.20;99.90;;;;;;4999932;28;20226;-80
2022/04/04 09:57:57;;;;;;;19.33;9.97;;;7.30;99.90;;;;;;5000123;28;20211;-80
2022/04/04 10:00:25;;;;;;;13.67;9.53;;;7.30;99.90;;;;;;5001096;28;20481;-79
2022/04/04 10:02:52;;;;;;;11.93;8.75;;;7.50;99.90;;;;;;4999673;28;20836;-80
2022/04/04 10:05:19;;;;;;;12.30;9.90;;;7.70;99.90;;;;;;4999682;28;20222;-80
2022/04/04 10:07:49;;;;;;;13.77;9.88;;;7.90;99.90;;;;;;5000772;28;20454;-80
2022/04/04 10:10:17;;;;;;;15.50;9.87;;;8.10;99.90;;;;;;5001272;28;20284;-80
2022/04/04 10:12:45;;;;;;;12.90;11.07;;;8.20;99.90;;;;;;5006658;28;20508;-77
2022/04/04 10:15:12;;;;;;;10.80;8.93;;;8.10;99.90;;;;;;5010704;28;20477;-78
2022/04/04 10:17:40;;;;;;;14.37;9.43;;;8.30;99.90;;;;;;5009380;28;20451;-79
2022/04/04 10:20:08;;;;;;;12.20;9.80;;;8.30;99.90;;;;;;5006387;28;20450;-79
2022/04/04 10:22:35;;;;;;;11.90;9.20;;;8.30;99.90;;;;;;4999582;28;20481;-79
2022/04/04 10:25:04;;;;;;;12.93;10.10;;;8.30;99.90;;;;;;4998903;28;20469;-79
2022/04/04 10:27:31;;;;;;;9.67;8.30;;;8.40;99.90;;;;;;5001849;28;20449;-79
2022/04/04 10:30:03;;;;;;;16.10;10.40;;;8.30;99.90;;;;;;4999513;28;20482;-79
2022/04/04 10:32:30;;;;;;;13.63;10.30;;;8.40;99.90;;;;;;4999264;28;20445;-79
2022/04/04 10:34:57;;;;;;;13.33;9.63;;;8.50;99.90;;;;;;4998698;28;20841;-79
2022/04/04 10:37:29;;;;;;;17.67;8.77;;;8.50;99.90;;;;;;4998289;28;20454;-79
2022/04/04 10:39:56;;;;;;;10.20;9.20;;;8.40;99.90;;;;;;4999255;28;20445;-80
2022/04/04 10:42:31;;;;;;;14.03;9.63;;;8.40;99.90;;;;;;5000913;28;20464;-80
2022/04/04 10:45:00;;;;;;;10.07;8.33;;;8.30;99.90;;;;;;5001046;28;20961;-80
2022/04/04 10:47:28;;;;;;;21.00;8.47;;;8.20;99.90;;;;;;5001545;28;20500;-80
2022/04/04 10:49:57;;;;;;;10.93;8.70;;;8.30;99.90;;;;;;4999291;28;20470;-80
2022/04/04 10:52:39;;;;;;;9.60;7.90;;;8.30;99.90;;;;;;4999516;28;20453;-80
2022/04/04 10:55:25;;;;;;;12.40;8.87;;;8.40;99.90;;;;;;4999710;28;20505;-81
2022/04/04 10:57:58;;;;;;;11.17;9.20;;;8.30;99.90;;;;;;4999970;28;20544;-79
2022/04/04 11:00:31;;;;;;;8.60;7.70;;;8.40;99.90;;;;;;5002208;28;20509;-78
2022/04/04 11:03:00;;;;;;;12.53;8.20;;;8.50;99.90;;;;;;5007840;28;21028;-78
2022/04/04 11:08:13;;;;;;;16.53;8.50;;;8.70;99.90;;;;;;5000500;28;20910;-79
2022/04/04 11:10:42;;;;;;;12.27;8.93;;;8.60;1.00;;;;;;5003286;28;20550;-79
2022/04/04 11:13:16;;;;;;;11.17;6.90;;;8.50;99.90;;;;;;5004944;28;20535;-80
2022/04/04 11:15:44;;;;;;;21.73;8.17;;;8.50;99.90;;;;;;4999063;28;20528;-80
2022/04/04 11:18:11;;;;;;;10.00;7.40;;;8.50;99.90;;;;;;4999648;28;20943;-80
2022/04/04 11:20:47;;;;;;;9.00;7.17;;;8.60;99.90;;;;;;4999164;28;20449;-80
2022/04/04 11:23:14;;;;;;;21.80;8.40;;;8.70;99.90;;;;;;5004234;28;20476;-80
2022/04/04 11:25:51;;;;;;;8.67;7.87;;;8.70;99.90;;;;;;5015192;23;20501;-84
2022/04/04 11:28:22;;;;;;;10.77;6.83;;;8.70;99.90;;;;;;5004724;28;20436;-85
2022/04/04 11:30:52;;;;;;;13.30;8.73;;;8.70;99.90;;;;;;5002262;28;20918;-84
2022/04/04 11:33:22;;;;;;;9.47;6.20;;;8.60;99.90;;;;;;5002441;28;20447;-85
2022/04/04 11:35:50;;;;;;;9.20;6.07;;;8.50;99.90;;;;;;5005021;28;20469;-84
2022/04/04 11:38:19;;;;;;;21.43;6.87;;;8.50;99.90;;;;;;5013520;28;20484;-84
2022/04/04 11:40:52;;;;;;;7.43;5.77;;;8.40;99.90;;;;;;5018413;28;20477;-84
2022/04/04 11:43:26;;;;;;;12.27;5.90;;;8.40;99.90;;;;;;5018802;28;20520;-84
2022/04/04 11:45:54;;;;;;;13.50;5.73;;;8.40;99.90;;;;;;5014074;28;20446;-84
2022/04/04 11:48:25;;;;;;;7.10;6.13;;;8.50;99.90;;;;;;5010295;28;20479;-85
2022/04/04 11:50:56;;;;;;;8.00;5.80;;;8.70;99.90;;;;;;5011846;28;20407;-83
2022/04/04 11:53:26;;;;;;;9.17;5.00;;;8.80;99.90;;;;;;5016090;28;20424;-84
2022/04/04 11:56:00;;;;;;;6.90;5.67;;;8.80;99.90;;;;;;5016387;28;20481;-83
2022/04/04 11:58:28;;;;;;;9.47;5.60;;;8.50;99.90;;;;;;5015705;28;20440;-84
2022/04/04 12:01:04;;;;;;;6.40;5.23;;;8.50;99.90;;;;;;5015772;28;20460;-84
2022/04/04 12:03:32;;;;;;;6.50;5.47;;;8.50;99.90;;;;;;5015816;28;20474;-84
2022/04/04 12:06:05;;;;;;;8.97;5.07;;;8.40;99.90;;;;;;5016122;28;20497;-84
2022/04/04 12:08:32;;;;;;;14.47;4.70;;;8.40;1.00;;;;;;5012939;28;20784;-85
2022/04/04 12:10:59;;;;;;;5.93;4.57;;;8.40;99.90;;;;;;5010249;28;20443;-85
2022/04/04 12:13:27;;;;;;;6.70;4.70;;;8.40;99.90;;;;;;5009596;28;20450;-85
2022/04/04 12:15:55;;;;;;;10.23;5.80;;;8.50;99.90;;;;;;5009590;28;20445;-85
2022/04/04 12:18:24;;;;;;;7.40;4.73;;;8.30;99.90;;;;;;5009326;28;20457;-85
2022/04/04 12:20:52;;;;;;;5.43;4.30;;;8.10;99.90;;;;;;5009233;28;20450;-85
2022/04/04 12:26:07;;;;;;;6.67;4.70;;;8.00;99.90;;;;;;5007472;28;20443;-85
2022/04/04 12:28:36;;;;;;;11.47;4.40;;;8.10;99.90;;;;;;5013843;28;20453;-84
2022/04/04 12:31:14;;;;;;;8.23;4.00;;;8.00;99.90;;;;;;5016621;28;20455;-84
2022/04/04 12:33:42;;;;;;;7.87;5.03;;;8.00;99.90;;;;;;5010543;28;20443;-84
2022/04/04 12:36:09;;;;;;;8.90;4.90;;;7.70;99.90;;;;;;5008743;28;20448;-85
2022/04/04 12:38:38;;;;;;;9.77;5.10;;;7.50;99.90;;;;;;5009413;28;20440;-85
2022/04/04 12:41:10;;;;;;;10.00;4.70;;;7.30;99.90;;;;;;5010279;28;20428;-85
2022/04/04 12:43:40;;;;;;;12.20;5.50;;;7.20;99.90;;;;;;5016220;28;20468;-84
2022/04/04 12:46:23;;;;;;;12.23;5.93;;;7.10;99.90;;;;;;5018311;28;20427;-85
2022/04/04 12:48:50;;;;;;;9.57;5.57;;;7.00;99.90;;;;;;5018122;28;20461;-85
2022/04/04 12:51:29;;;;;;;11.18;6.22;;;6.70;99.90;;;;;;5018571;28;20433;-84
2022/04/04 12:53:56;;;;;;;8.00;6.30;;;6.50;1.00;;;;;;5018443;28;20199;-84
2022/04/04 12:56:23;;;;;;;7.38;6.45;;;6.40;1.00;;;;;;5018091;28;20493;-84
2022/04/04 12:59:07;;;;;;;7.45;6.18;;;6.40;1.00;;;;;;5018476;28;20201;-84
2022/04/04 13:01:35;;;;;;;11.32;6.22;;;6.40;1.00;;;;;;5014841;28;20194;-84
2022/04/04 13:04:03;;;;;;;9.13;7.40;;;6.20;78.20;;;;;;5012103;28;20235;-85
2022/04/04 13:06:31;;;;;;;8.98;7.93;;;5.90;1.00;;;;;;5011481;28;20260;-84
2022/04/04 13:08:59;;;;;;;10.18;7.72;;;5.70;1.00;;;;;;5012179;28;20207;-85
2022/04/04 13:11:26;;;;;;;15.23;7.78;;;5.30;99.90;;;;;;5012805;28;20204;-85
2022/04/04 13:14:04;;;;;;;16.13;7.80;;;5.00;1.00;;;;;;5011626;28;20201;-84
2022/04/04 13:16:34;;;;;;;15.45;8.60;;;4.90;1.00;;;;;;5011926;28;20220;-85